Time;durP1;ratioP1;P1;durP2;ratioP2;P2;SDS_P1;SDS_P2;PMS_P1;PMS_P2;Temp;Humidity;BMP_temperature;BMP_pressure;BME280_temperature;BME280_humidity;BME280_pressure;Samples;Min_cycle;Max_cycle;Signal;HPM_P1;HPM_P2
2022/09/27 00:01:59;;;;;;;33.60;5.20;;;;;;;12.61;100.00;96209.06;4939043;28;20158;-58
2022/09/27 00:04:25;;;;;;;30.90;5.00;;;;;;;13.00;100.00;96206.88;4938227;29;20051;-57
2022/09/27 00:06:50;;;;;;;34.42;5.30;;;;;;;12.48;100.00;96206.56;4940164;28;20416;-60
2022/09/27 00:09:16;;;;;;;34.63;5.47;;;;;;;12.64;100.00;96207.97;4934270;29;20027;-58
2022/09/27 00:11:42;;;;;;;27.08;4.57;;;;;;;12.71;100.00;96203.94;4940393;28;20401;-58
2022/09/27 00:14:09;;;;;;;31.67;5.25;;;;;;;12.60;100.00;96207.38;4938341;29;20094;-57
2022/09/27 00:16:37;;;;;;;40.90;6.13;;;;;;;12.68;100.00;96199.78;4940135;28;20046;-57
2022/09/27 00:19:07;;;;;;;36.08;5.47;;;;;;;12.52;100.00;96197.53;4940750;29;20046;-58
2022/09/27 00:21:33;;;;;;;28.40;5.20;;;;;;;12.74;100.00;96198.47;4934973;28;20047;-58
2022/09/27 00:24:00;;;;;;;31.17;5.18;;;;;;;12.33;100.00;96190.28;4939392;28;20453;-58
2022/09/27 00:26:26;;;;;;;39.13;5.65;;;;;;;12.44;100.00;96192.06;4939990;28;20102;-57
2022/09/27 00:28:51;;;;;;;26.85;5.03;;;;;;;12.60;100.00;96185.63;4939176;28;20034;-59
2022/09/27 00:31:28;;;;;;;29.42;5.32;;;;;;;12.68;100.00;96184.09;4934441;29;20046;-59
2022/09/27 00:34:00;;;;;;;28.63;5.00;;;;;;;12.69;100.00;96184.91;4940925;28;20490;-59
2022/09/27 00:36:26;;;;;;;32.17;4.80;;;;;;;13.02;100.00;96175.34;4938948;28;20043;-60
2022/09/27 00:38:52;;;;;;;25.90;4.72;;;;;;;12.40;100.00;96171.50;4941070;29;20039;-60
2022/09/27 00:41:31;;;;;;;28.95;5.35;;;;;;;12.60;100.00;96169.94;4939761;28;20658;-58
2022/09/27 00:44:03;;;;;;;30.30;5.32;;;;;;;12.51;100.00;96161.84;4939389;29;20058;-58
2022/09/27 00:46:49;;;;;;;37.80;5.78;;;;;;;12.64;100.00;96158.28;4938177;28;20086;-59
2022/09/27 00:49:26;;;;;;;33.10;5.20;;;;;;;12.37;100.00;96156.88;4941391;28;20038;-58
2022/09/27 00:52:01;;;;;;;27.73;4.93;;;;;;;12.67;100.00;96150.19;4936789;28;20058;-58
2022/09/27 00:54:28;;;;;;;32.47;5.55;;;;;;;12.45;100.00;96146.66;4940937;28;20027;-58
2022/09/27 00:56:55;;;;;;;34.17;6.00;;;;;;;12.23;100.00;96151.88;4936875;28;20070;-59
2022/09/27 00:59:31;;;;;;;33.28;5.13;;;;;;;13.31;100.00;96149.47;4937834;28;20027;-59
2022/09/27 01:01:57;;;;;;;40.17;6.07;;;;;;;12.62;100.00;96142.69;4939163;28;20047;-59
2022/09/27 01:04:26;;;;;;;28.10;5.40;;;;;;;12.72;100.00;96141.03;4937504;29;20573;-59
2022/09/27 01:06:52;;;;;;;26.33;4.85;;;;;;;12.92;100.00;96128.97;4938830;28;20042;-59
2022/09/27 01:09:18;;;;;;;29.13;4.85;;;;;;;12.51;100.00;96130.47;4938959;29;20031;-59
2022/09/27 01:11:55;;;;;;;25.80;4.93;;;;;;;13.14;100.00;96124.63;4939163;28;20045;-60
2022/09/27 01:14:32;;;;;;;33.60;5.10;;;;;;;12.32;100.00;96125.03;4940204;29;20169;-59
2022/09/27 01:17:12;;;;;;;38.28;5.95;;;;;;;12.57;100.00;96118.69;4938439;28;20039;-59
2022/09/27 01:20:06;;;;;;;30.27;5.25;;;;;;;12.21;100.00;96122.44;4937084;29;20039;-62
2022/09/27 01:22:38;;;;;;;28.60;4.80;;;;;;;12.37;100.00;96122.91;4936655;29;20043;-60
2022/09/27 01:25:45;;;;;;;37.10;5.50;;;;;;;12.19;100.00;96113.88;4936823;29;20615;-60
2022/09/27 01:28:10;;;;;;;35.40;5.35;;;;;;;12.48;100.00;96114.19;4937593;29;20591;-61
2022/09/27 01:30:44;;;;;;;31.45;5.28;;;;;;;12.58;100.00;96116.94;4938325;28;20047;-61
2022/09/27 01:33:39;;;;;;;28.92;4.70;;;;;;;12.31;100.00;96108.53;4937894;29;20118;-59
2022/09/27 01:36:08;;;;;;;28.17;4.85;;;;;;;12.60;100.00;96107.19;4937549;28;20043;-59
2022/09/27 01:38:41;;;;;;;30.13;4.93;;;;;;;12.04;100.00;96111.50;4938113;28;20031;-60
2022/09/27 01:41:15;;;;;;;30.08;6.25;;;;;;;12.45;100.00;96112.66;4938798;28;20822;-60
2022/09/27 01:44:10;;;;;;;25.52;4.45;;;;;;;12.18;100.00;96105.19;4939431;28;20031;-59
2022/09/27 01:46:49;;;;;;;42.00;6.10;;;;;;;12.57;100.00;96107.41;4946783;28;20086;-59
2022/09/27 01:49:17;;;;;;;32.90;4.82;;;;;;;12.32;100.00;96101.50;4952797;28;20023;-60
2022/09/27 01:51:57;;;;;;;29.67;4.45;;;;;;;12.52;100.00;96092.94;4938095;28;20043;-60
2022/09/27 01:54:30;;;;;;;30.38;4.70;;;;;;;12.08;100.00;96092.00;4938940;29;20019;-60
2022/09/27 01:56:59;;;;;;;28.27;4.38;;;;;;;12.07;100.00;96100.78;4935378;28;20046;-61
2022/09/27 01:59:35;;;;;;;34.25;4.80;;;;;;;13.02;100.00;96096.84;4936323;29;20034;-60
2022/09/27 02:02:07;;;;;;;30.63;4.60;;;;;;;12.17;100.00;96090.47;4938446;28;20405;-60
2022/09/27 02:04:35;;;;;;;41.35;5.18;;;;;;;12.74;100.00;96080.75;4938822;29;20023;-63
2022/09/27 02:07:16;;;;;;;29.95;4.30;;;;;;;12.37;100.00;96088.91;4937837;28;20043;-60
2022/09/27 02:09:48;;;;;;;33.30;4.60;;;;;;;12.16;100.00;96083.56;4937538;29;20488;-59
2022/09/27 02:12:19;;;;;;;26.90;3.67;;;;;;;12.20;100.00;96084.16;4936988;28;20043;-59
2022/09/27 02:15:05;;;;;;;33.90;4.57;;;;;;;12.45;100.00;96078.69;4938841;29;20520;-61
2022/09/27 02:17:52;;;;;;;33.95;4.38;;;;;;;12.25;100.00;96079.41;4936279;29;20055;-60
2022/09/27 02:20:24;;;;;;;30.13;4.07;;;;;;;12.29;100.00;96080.84;4937508;28;20536;-62
2022/09/27 02:22:56;;;;;;;32.85;4.57;;;;;;;12.48;100.00;96070.59;4936197;28;20066;-60
2022/09/27 02:25:34;;;;;;;25.60;3.70;;;;;;;12.57;100.00;96076.03;4937206;28;20086;-60
2022/09/27 02:28:18;;;;;;;23.88;4.05;;;;;;;12.24;100.00;96075.13;4937836;29;20150;-60
2022/09/27 02:30:44;;;;;;;26.70;3.97;;;;;;;12.56;100.00;96064.75;4936949;28;20505;-60
2022/09/27 02:33:10;;;;;;;25.73;3.78;;;;;;;12.06;100.00;96070.41;4938373;28;20115;-59
2022/09/27 02:35:35;;;;;;;27.60;3.80;;;;;;;12.29;100.00;96073.00;4938139;28;20930;-60
2022/09/27 02:38:02;;;;;;;34.38;4.75;;;;;;;11.98;100.00;96067.53;4936405;29;20027;-62
2022/09/27 02:40:34;;;;;;;25.65;3.88;;;;;;;12.01;100.00;96063.88;4935783;28;20035;-60
2022/09/27 02:43:02;;;;;;;32.22;4.30;;;;;;;12.24;100.00;96057.69;4938028;29;20507;-60
2022/09/27 02:45:40;;;;;;;27.60;3.75;;;;;;;12.17;100.00;96068.72;4937774;28;20459;-59
2022/09/27 02:48:40;;;;;;;39.17;5.22;;;;;;;12.31;100.00;96068.47;4931809;29;20083;-59
2022/09/27 02:51:08;;;;;;;42.95;5.53;;;;;;;12.08;100.00;96060.66;4932921;28;20919;-59
2022/09/27 02:53:57;;;;;;;33.10;4.45;;;;;;;12.53;100.00;96055.38;4934678;29;20031;-59
2022/09/27 02:56:33;;;;;;;32.55;4.28;;;;;;;12.42;100.00;96051.94;4926822;29;20043;-58
2022/09/27 02:59:23;;;;;;;29.83;3.80;;;;;;;12.46;100.00;96048.97;4937810;29;20042;-59
2022/09/27 03:01:52;;;;;;;32.30;4.20;;;;;;;11.91;100.00;96043.69;4938265;28;20744;-59
2022/09/27 03:04:28;;;;;;;28.25;4.13;;;;;;;12.24;100.00;96046.38;4935398;29;20023;-59
2022/09/27 03:06:55;;;;;;;34.70;4.78;;;;;;;12.29;100.00;96041.63;4935585;28;20145;-59
2022/09/27 03:09:23;;;;;;;42.88;5.55;;;;;;;12.19;100.00;96040.72;4936781;29;20030;-59
2022/09/27 03:11:49;;;;;;;29.40;4.45;;;;;;;12.19;100.00;96040.72;4938332;28;20042;-58
2022/09/27 03:14:16;;;;;;;26.75;4.10;;;;;;;12.66;100.00;96036.06;4938297;29;20027;-60
2022/09/27 03:16:41;;;;;;;33.90;4.70;;;;;;;12.74;100.00;96044.13;4936316;28;20039;-60
2022/09/27 03:19:08;;;;;;;26.83;3.70;;;;;;;12.27;100.00;96039.13;4937638;29;20408;-61
2022/09/27 03:21:34;;;;;;;32.33;4.75;;;;;;;12.60;100.00;96047.84;4937024;28;20102;-60
2022/09/27 03:23:59;;;;;;;27.98;3.97;;;;;;;12.52;100.00;96051.09;4939270;29;20529;-61
2022/09/27 03:26:26;;;;;;;24.90;3.60;;;;;;;13.13;100.00;96044.44;4936869;28;20037;-59
2022/09/27 03:28:51;;;;;;;26.65;3.95;;;;;;;12.46;100.00;96038.50;4935859;29;20027;-59
2022/09/27 03:31:16;;;;;;;23.77;3.55;;;;;;;12.51;100.00;96049.41;4935055;28;20039;-62
2022/09/27 03:33:42;;;;;;;26.35;4.05;;;;;;;12.23;100.00;96036.88;4936196;29;20023;-59
2022/09/27 03:36:07;;;;;;;26.02;3.95;;;;;;;12.05;100.00;96042.59;4938141;28;20504;-58
2022/09/27 03:38:32;;;;;;;26.25;3.85;;;;;;;12.19;100.00;96040.72;4935883;29;20141;-59
2022/09/27 03:40:58;;;;;;;25.15;3.80;;;;;;;12.45;100.00;96036.03;4935819;28;20039;-59
2022/09/27 03:43:24;;;;;;;26.88;3.80;;;;;;;12.22;100.00;96030.00;4936055;28;20028;-59
2022/09/27 03:45:49;;;;;;;33.33;4.45;;;;;;;11.98;100.00;96028.34;4937989;28;20751;-60
2022/09/27 03:48:15;;;;;;;27.70;4.05;;;;;;;12.20;100.00;96024.06;4936074;29;20501;-60
2022/09/27 03:50:41;;;;;;;25.73;3.40;;;;;;;12.18;100.00;96028.56;4936540;28;20055;-60
2022/09/27 03:53:07;;;;;;;28.70;4.38;;;;;;;11.86;100.00;96029.28;4937349;28;20027;-61
2022/09/27 03:55:32;;;;;;;27.88;4.10;;;;;;;12.27;100.00;96033.91;4936841;28;20389;-61
2022/09/27 03:57:57;;;;;;;35.40;4.65;;;;;;;11.84;100.00;96028.59;4936059;28;20406;-61
2022/09/27 04:00:24;;;;;;;33.70;4.35;;;;;;;12.26;100.00;96028.78;4937676;28;20035;-60
2022/09/27 04:02:50;;;;;;;30.48;4.07;;;;;;;12.74;100.00;96025.84;4940125;29;20031;-61
2022/09/27 04:05:15;;;;;;;24.83;3.70;;;;;;;12.05;100.00;96023.47;4941399;28;20023;-58
2022/09/27 04:07:47;;;;;;;27.85;3.88;;;;;;;12.07;100.00;96027.63;4939627;29;20085;-61
2022/09/27 04:10:12;;;;;;;30.20;4.43;;;;;;;12.30;100.00;96027.63;4938940;28;20517;-60
2022/09/27 04:12:39;;;;;;;28.33;3.97;;;;;;;11.81;100.00;96016.56;4941741;28;20062;-59
2022/09/27 04:15:04;;;;;;;32.30;4.65;;;;;;;11.96;100.00;96035.47;4941520;28;20081;-59
2022/09/27 04:17:30;;;;;;;29.58;3.88;;;;;;;12.40;100.00;96031.13;4939341;29;20114;-59
2022/09/27 04:19:55;;;;;;;33.67;4.55;;;;;;;12.11;100.00;96025.59;4940338;29;20042;-59
2022/09/27 04:22:22;;;;;;;34.83;4.40;;;;;;;12.89;100.00;96029.81;4940130;28;20518;-59
2022/09/27 04:24:48;;;;;;;24.80;3.63;;;;;;;11.87;100.00;96036.16;4939607;29;20048;-58
2022/09/27 04:27:13;;;;;;;27.35;3.70;;;;;;;12.25;100.00;96029.75;4939987;28;20074;-59
2022/09/27 04:29:42;;;;;;;25.38;3.60;;;;;;;13.05;100.00;96033.75;4940429;29;20042;-59
2022/09/27 04:32:07;;;;;;;27.65;3.63;;;;;;;13.16;100.00;96025.88;4939703;28;20062;-59
2022/09/27 04:37:16;;;;;;;22.90;3.20;;;;;;;12.03;100.00;96015.75;4938115;28;20074;-59
2022/09/27 04:39:41;;;;;;;29.40;3.60;;;;;;;12.15;100.00;96019.22;4939954;28;20597;-59
2022/09/27 04:42:08;;;;;;;30.38;3.97;;;;;;;12.37;100.00;96028.78;4940551;28;20051;-61
2022/09/27 04:44:33;;;;;;;36.92;4.55;;;;;;;12.63;100.00;96012.78;4939764;29;20111;-60
2022/09/27 04:46:58;;;;;;;32.03;4.20;;;;;;;12.44;100.00;96016.91;4938161;28;20465;-62
2022/09/27 04:49:24;;;;;;;36.65;4.55;;;;;;;12.54;100.00;96017.81;4940500;29;20031;-62
2022/09/27 04:51:49;;;;;;;26.27;3.63;;;;;;;12.27;100.00;96017.41;4938534;28;20123;-60
2022/09/27 04:54:15;;;;;;;28.00;3.72;;;;;;;11.68;100.00;96010.66;4940140;29;20031;-59
2022/09/27 04:56:40;;;;;;;49.22;5.45;;;;;;;13.43;100.00;96024.56;4939202;28;20079;-59
2022/09/27 04:59:06;;;;;;;25.08;3.35;;;;;;;12.68;100.00;96027.16;4937820;29;20031;-59
2022/09/27 05:01:32;;;;;;;30.33;3.88;;;;;;;13.47;100.00;96044.28;4936804;28;20069;-60
2022/09/27 05:03:58;;;;;;;31.90;4.10;;;;;;;13.95;100.00;96042.88;4940305;28;20027;-59
2022/09/27 05:06:23;;;;;;;24.25;3.33;;;;;;;13.73;100.00;96049.09;4940084;28;20054;-60
2022/09/27 05:08:48;;;;;;;27.70;3.53;;;;;;;13.46;100.00;96047.88;4939904;28;20035;-59
2022/09/27 05:11:14;;;;;;;29.20;3.88;;;;;;;12.65;100.00;96042.28;4936708;28;20035;-59
2022/09/27 05:13:39;;;;;;;29.23;3.85;;;;;;;12.77;100.00;96045.66;4939987;29;20035;-60
2022/09/27 05:16:05;;;;;;;24.42;3.58;;;;;;;13.44;100.00;96039.31;4939893;28;20699;-59
2022/09/27 05:18:30;;;;;;;30.08;4.20;;;;;;;13.16;100.00;96051.19;4937251;29;20054;-60
2022/09/27 05:20:57;;;;;;;32.20;4.22;;;;;;;12.62;100.00;96048.56;4933304;28;20047;-59
2022/09/27 05:23:23;;;;;;;24.58;3.40;;;;;;;12.51;100.00;96052.03;4936609;29;20496;-59
2022/09/27 05:25:48;;;;;;;28.60;3.60;;;;;;;12.54;100.00;96056.19;4936526;28;20039;-59
2022/09/27 05:28:14;;;;;;;23.98;3.33;;;;;;;12.78;100.00;96058.63;4937059;29;20042;-59
2022/09/27 05:30:39;;;;;;;25.50;3.38;;;;;;;13.63;100.00;96075.25;4939152;28;20142;-59
2022/09/27 05:33:04;;;;;;;29.42;3.83;;;;;;;13.39;100.00;96075.53;4940289;29;20107;-59
2022/09/27 05:35:30;;;;;;;40.60;7.80;;;;;;;13.17;100.00;96073.81;4938329;28;20035;-60
2022/09/27 05:37:58;;;;;;;62.85;12.32;;;;;;;12.67;100.00;96082.19;4937857;29;20030;-59
2022/09/27 05:40:24;;;;;;;52.50;9.73;;;;;;;12.61;100.00;96087.91;4936696;28;20027;-59
2022/09/27 05:42:53;;;;;;;28.67;4.13;;;;;;;12.37;100.00;96091.53;4939479;29;20022;-62
2022/09/27 05:45:20;;;;;;;35.72;4.93;;;;;;;11.87;100.00;96088.41;4938500;28;20015;-59
2022/09/27 05:47:55;;;;;;;29.58;4.53;;;;;;;12.37;100.00;96102.00;4938243;29;20042;-59
2022/09/27 05:50:21;;;;;;;36.55;5.32;;;;;;;12.56;100.00;96101.34;4937475;28;20031;-59
2022/09/27 05:52:48;;;;;;;30.75;3.80;;;;;;;11.69;100.00;96101.94;4938388;28;20027;-59
2022/09/27 05:55:13;;;;;;;25.65;3.55;;;;;;;11.77;100.00;96110.00;4938305;28;20035;-61
2022/09/27 05:57:39;;;;;;;40.72;5.22;;;;;;;11.80;100.00;96113.31;4934781;29;20058;-60
2022/09/27 06:00:05;;;;;;;37.83;4.93;;;;;;;12.18;100.00;96112.19;4935350;28;20034;-60
2022/09/27 06:02:31;;;;;;;35.72;4.88;;;;;;;12.17;100.00;96114.00;4936943;28;20047;-60
2022/09/27 06:04:56;;;;;;;25.40;4.03;;;;;;;12.01;100.00;96110.91;4939176;28;20521;-60
2022/09/27 06:07:21;;;;;;;27.50;4.00;;;;;;;12.00;100.00;96115.28;4936393;28;20477;-60
2022/09/27 06:09:47;;;;;;;24.48;3.28;;;;;;;11.83;100.00;96119.16;4938309;28;20034;-59
2022/09/27 06:12:13;;;;;;;26.38;3.78;;;;;;;11.72;100.00;96122.56;4937994;28;20651;-61
2022/09/27 06:14:39;;;;;;;28.88;3.78;;;;;;;11.61;100.00;96119.94;4938064;29;20023;-60
2022/09/27 06:17:04;;;;;;;26.90;3.80;;;;;;;11.56;100.00;96120.31;4936055;28;20063;-60
2022/09/27 06:19:30;;;;;;;33.28;4.57;;;;;;;11.87;100.00;96119.75;4935403;29;20971;-59
2022/09/27 06:21:55;;;;;;;27.77;3.97;;;;;;;11.95;100.00;96117.44;4938324;28;20043;-59
2022/09/27 06:24:20;;;;;;;29.05;4.05;;;;;;;12.06;100.00;96120.03;4937090;29;20097;-60
2022/09/27 06:26:46;;;;;;;52.22;5.88;;;;;;;11.60;100.00;96118.28;4935383;28;20102;-59
2022/09/27 06:29:11;;;;;;;30.15;4.10;;;;;;;11.41;100.00;96123.22;4938621;28;20038;-59
2022/09/27 06:31:37;;;;;;;31.40;4.22;;;;;;;12.40;100.00;96127.88;4935454;28;20389;-60
2022/09/27 06:34:02;;;;;;;32.08;4.40;;;;;;;12.28;100.00;96119.22;4937436;28;20027;-60
2022/09/27 06:36:28;;;;;;;29.15;4.03;;;;;;;12.07;100.00;96121.69;4937325;28;20040;-59
2022/09/27 06:38:53;;;;;;;27.42;4.13;;;;;;;12.05;100.00;96126.22;4937131;29;20110;-60
2022/09/27 06:41:18;;;;;;;22.50;3.40;;;;;;;12.10;100.00;96124.06;4935834;28;20443;-59
2022/09/27 06:43:44;;;;;;;34.65;4.63;;;;;;;11.86;100.00;96123.31;4937749;28;20027;-62
2022/09/27 06:46:09;;;;;;;28.85;4.05;;;;;;;11.95;100.00;96127.88;4938012;28;20142;-59
2022/09/27 06:48:37;;;;;;;28.08;4.18;;;;;;;11.98;100.00;96130.25;4933781;29;20030;-59
2022/09/27 06:51:03;;;;;;;31.15;4.28;;;;;;;12.06;100.00;96129.69;4936551;28;20046;-59
2022/09/27 06:53:29;;;;;;;26.70;4.20;;;;;;;12.07;100.00;96126.91;4937496;29;20118;-59
2022/09/27 06:56:01;;;;;;;22.50;3.42;;;;;;;12.18;100.00;96138.34;4937227;28;20300;-59
2022/09/27 07:01:11;;;;;;;30.88;4.25;;;;;;;12.63;100.00;96140.94;4933684;28;20078;-61
2022/09/27 07:03:40;;;;;;;24.67;3.67;;;;;;;12.29;100.00;96146.19;4938474;28;20110;-58
2022/09/27 07:06:10;;;;;;;23.33;3.35;;;;;;;12.85;100.00;96159.22;4935629;28;20039;-58
2022/09/27 07:08:37;;;;;;;27.92;4.20;;;;;;;12.41;100.00;96154.88;4936227;29;20375;-58
2022/09/27 07:11:06;;;;;;;27.13;3.80;;;;;;;13.90;100.00;96147.28;4935259;28;20036;-58
2022/09/27 07:13:33;;;;;;;22.13;3.50;;;;;;;13.22;100.00;96150.19;4937331;28;20054;-58
2022/09/27 07:16:00;;;;;;;22.70;3.30;;;;;;;13.18;100.00;96154.84;4936903;28;20038;-58
2022/09/27 07:18:26;;;;;;;26.15;3.80;;;;;;;13.00;100.00;96166.78;4936518;29;20079;-58
2022/09/27 07:20:52;;;;;;;21.60;3.22;;;;;;;13.34;100.00;96175.38;4939364;28;20047;-58
2022/09/27 07:23:18;;;;;;;17.80;2.92;;;;;;;13.25;100.00;96176.94;4937939;28;20551;-58
2022/09/27 07:25:43;;;;;;;24.35;3.35;;;;;;;13.47;100.00;96185.69;4936282;28;20602;-58
2022/09/27 07:28:14;;;;;;;25.52;3.40;;;;;;;13.20;100.00;96180.91;4934337;29;20713;-61
2022/09/27 07:30:40;;;;;;;26.02;3.45;;;;;;;13.20;100.00;96200.03;4935993;28;20119;-58
2022/09/27 07:33:05;;;;;;;21.27;3.17;;;;;;;13.22;100.00;96195.50;4937954;28;20051;-58
2022/09/27 07:35:31;;;;;;;26.83;3.50;;;;;;;13.89;100.00;96201.47;4939357;28;20127;-59
2022/09/27 07:37:57;;;;;;;31.05;3.55;;;;;;;13.00;100.00;96203.44;4940586;29;20034;-59
2022/09/27 07:40:24;;;;;;;27.05;3.47;;;;;;;12.94;100.00;96207.38;4940924;28;20034;-58
2022/09/27 07:42:56;;;;;;;22.77;3.03;;;;;;;13.63;100.00;96220.16;4941961;28;20703;-60
2022/09/27 07:45:23;;;;;;;30.25;3.60;;;;;;;13.02;100.00;96212.00;4940508;28;20019;-58
2022/09/27 07:47:49;;;;;;;27.20;3.60;;;;;;;13.06;100.00;96216.00;4939427;28;20421;-59
2022/09/27 07:50:14;;;;;;;27.27;3.50;;;;;;;12.67;100.00;96220.81;4941489;28;20030;-58
2022/09/27 07:52:41;;;;;;;26.30;3.47;;;;;;;12.95;100.00;96231.75;4940635;29;20596;-60
2022/09/27 07:55:09;;;;;;;23.23;3.55;;;;;;;13.05;100.00;96222.19;4939915;28;20031;-58
2022/09/27 07:57:35;;;;;;;28.10;3.58;;;;;;;13.28;100.00;96231.66;4939916;29;20081;-58
2022/09/27 08:00:01;;;;;;;33.95;4.22;;;;;;;13.94;100.00;96228.13;4939912;29;20031;-59
2022/09/27 08:02:26;;;;;;;23.75;3.42;;;;;;;13.22;100.00;96223.50;4941808;28;20069;-57
2022/09/27 08:04:52;;;;;;;24.92;3.25;;;;;;;13.85;100.00;96231.50;4941443;29;20161;-57
2022/09/27 08:07:17;;;;;;;22.58;3.28;;;;;;;13.57;100.00;96239.00;4940770;28;20069;-58
2022/09/27 08:09:43;;;;;;;23.35;2.92;;;;;;;14.51;100.00;96238.28;4939586;28;20039;-58
2022/09/27 08:12:09;;;;;;;28.67;3.70;;;;;;;13.43;100.00;96241.91;4939861;28;20109;-58
2022/09/27 08:14:35;;;;;;;20.95;2.92;;;;;;;13.34;100.00;96237.41;4939085;29;20655;-58
2022/09/27 08:17:00;;;;;;;24.60;3.55;;;;;;;14.29;100.00;96245.31;4939143;28;20053;-58
2022/09/27 08:19:25;;;;;;;28.33;3.95;;;;;;;13.41;100.00;96249.06;4939622;28;20082;-58
2022/09/27 08:21:53;;;;;;;22.77;3.15;;;;;;;13.86;100.00;96248.91;4938563;28;20103;-59
2022/09/27 08:24:19;;;;;;;24.20;3.25;;;;;;;13.78;100.00;96251.31;4937902;28;20549;-59
2022/09/27 08:26:45;;;;;;;35.65;4.75;;;;;;;13.23;100.00;96256.53;4939396;28;20043;-58
2022/09/27 08:29:11;;;;;;;27.77;3.72;;;;;;;13.93;100.00;96268.41;4938773;28;20031;-58
2022/09/27 08:31:37;;;;;;;23.55;3.58;;;;;;;13.35;100.00;96268.69;4939229;28;20841;-58
2022/09/27 08:34:02;;;;;;;27.45;3.50;;;;;;;13.67;100.00;96267.88;4941346;28;20031;-58
2022/09/27 08:36:29;;;;;;;23.20;3.13;;;;;;;14.35;100.00;96260.53;4939109;28;20122;-58
2022/09/27 08:38:57;;;;;;;24.27;3.42;;;;;;;13.98;100.00;96260.16;4940020;29;20031;-58
2022/09/27 08:41:42;;;;;;;25.85;3.50;;;;;;;14.08;100.00;96272.38;4940059;28;20058;-59
2022/09/27 08:44:29;;;;;;;22.25;3.30;;;;;;;14.79;100.00;96258.56;4940423;29;20410;-58
2022/09/27 08:47:11;;;;;;;22.35;3.33;;;;;;;14.75;100.00;96256.38;4938386;28;20042;-59
2022/09/27 08:50:14;;;;;;;21.10;3.20;;;;;;;14.87;100.00;96263.19;4939265;28;20027;-58
2022/09/27 08:52:47;;;;;;;23.15;3.20;;;;;;;16.09;100.00;96270.88;4939576;29;20075;-58
2022/09/27 08:55:21;;;;;;;22.27;3.30;;;;;;;15.86;100.00;96254.56;4938843;28;20046;-59
2022/09/27 08:57:53;;;;;;;17.73;2.60;;;;;;;15.87;100.00;96258.84;4938795;29;20674;-58
2022/09/27 09:00:19;;;;;;;25.42;3.67;;;;;;;16.11;100.00;96259.25;4937455;28;20035;-58
2022/09/27 09:02:45;;;;;;;27.88;3.75;;;;;;;16.66;100.00;96271.75;4939961;29;20678;-58
2022/09/27 09:05:16;;;;;;;22.05;3.08;;;;;;;15.36;100.00;96277.28;4939903;28;20301;-58
2022/09/27 09:08:08;;;;;;;26.15;3.42;;;;;;;16.51;100.00;96273.19;4929954;29;20054;-58
2022/09/27 09:13:44;;;;;;;24.70;3.47;;;;;;;15.35;100.00;96267.75;4938517;29;20410;-58
2022/09/27 09:16:43;;;;;;;22.63;2.88;;;;;;;16.45;100.00;96277.22;4939015;28;20888;-58
2022/09/27 09:19:36;;;;;;;17.67;2.72;;;;;;;17.54;100.00;96261.66;4939785;29;20039;-60
2022/09/27 09:22:27;;;;;;;23.98;2.97;;;;;;;17.07;100.00;96264.41;4939666;28;20045;-59
2022/09/27 09:24:56;;;;;;;16.40;2.55;;;;;;;16.19;100.00;96263.81;4937045;29;20647;-58
2022/09/27 09:27:33;;;;;;;13.63;2.20;;;;;;;15.20;100.00;96266.44;4938232;28;20078;-58
2022/09/27 09:30:10;;;;;;;27.42;3.97;;;;;;;15.51;100.00;96269.88;4939678;28;20023;-59
2022/09/27 09:33:09;;;;;;;16.67;2.65;;;;;;;15.63;100.00;96282.88;4937572;29;20043;-58
2022/09/27 09:35:41;;;;;;;20.90;3.10;;;;;;;15.17;100.00;96278.06;4938407;28;20134;-61
2022/09/27 09:38:25;;;;;;;26.35;3.83;;;;;;;14.39;100.00;96282.94;4938643;28;20051;-58
2022/09/27 09:41:01;;;;;;;22.30;3.25;;;;;;;15.07;100.00;96295.59;4937759;28;20039;-57
2022/09/27 09:43:36;;;;;;;20.20;3.10;;;;;;;14.79;100.00;96300.56;4939399;28;20035;-57
2022/09/27 09:46:08;;;;;;;23.85;3.35;;;;;;;15.01;100.00;96298.72;4936312;28;20062;-58
2022/09/27 09:48:38;;;;;;;20.23;3.22;;;;;;;13.48;100.00;96302.59;4935742;29;20077;-58
2022/09/27 09:51:09;;;;;;;21.77;3.25;;;;;;;13.62;100.00;96311.94;4938522;28;20070;-58
2022/09/27 09:53:56;;;;;;;29.70;3.53;;;;;;;14.03;100.00;96307.78;4938587;29;20023;-57
2022/09/27 09:56:34;;;;;;;28.83;4.10;;;;;;;14.06;100.00;96308.38;4939003;28;20508;-58
2022/09/27 09:59:03;;;;;;;22.00;3.22;;;;;;;14.28;100.00;96311.84;4938807;29;20027;-58
2022/09/27 10:01:44;;;;;;;27.25;3.72;;;;;;;15.53;100.00;96299.47;4937486;28;20036;-58
2022/09/27 10:04:28;;;;;;;19.55;3.38;;;;;;;14.04;100.00;96296.31;4939341;29;20398;-58
2022/09/27 10:06:58;;;;;;;23.77;3.53;;;;;;;14.48;100.00;96304.09;4937002;28;20509;-58
2022/09/27 10:09:26;;;;;;;33.50;4.47;;;;;;;14.58;100.00;96307.66;4930649;28;20135;-57
2022/09/27 10:11:52;;;;;;;17.30;2.85;;;;;;;14.51;100.00;96309.09;4938053;28;20047;-58
2022/09/27 10:14:20;;;;;;;23.70;3.33;;;;;;;14.50;100.00;96312.66;4939144;28;20034;-61
2022/09/27 10:16:49;;;;;;;30.77;4.35;;;;;;;13.86;100.00;96302.13;4937336;28;20047;-58
2022/09/27 10:19:29;;;;;;;24.90;3.55;;;;;;;14.49;100.00;96303.16;4939513;29;20039;-58
2022/09/27 10:22:00;;;;;;;21.80;3.45;;;;;;;14.17;100.00;96298.78;4937895;28;20040;-58
2022/09/27 10:24:26;;;;;;;23.25;3.42;;;;;;;14.54;100.00;96300.94;4937783;29;20051;-59
2022/09/27 10:26:58;;;;;;;18.10;2.97;;;;;;;15.08;100.00;96299.06;4936724;28;20462;-58
2022/09/27 10:29:29;;;;;;;28.70;3.90;;;;;;;14.84;100.00;96303.63;4938019;28;20421;-58
2022/09/27 10:31:55;;;;;;;20.42;3.20;;;;;;;14.89;100.00;96300.63;4938333;28;20039;-58
2022/09/27 10:34:39;;;;;;;26.00;3.65;;;;;;;14.37;100.00;96300.59;4938653;28;20059;-57
2022/09/27 10:37:10;;;;;;;23.15;3.47;;;;;;;14.72;100.00;96303.84;4938245;28;20043;-58
2022/09/27 10:39:37;;;;;;;21.50;3.23;;;;;;;14.95;100.00;96291.41;4936610;29;20042;-57
2022/09/27 10:42:31;;;;;;;25.50;3.53;;;;;;;14.92;100.00;96289.84;4935148;28;20042;-58
2022/09/27 10:44:56;;;;;;;24.40;3.55;;;;;;;15.97;100.00;96292.06;4937876;28;20039;-58
2022/09/27 10:47:25;;;;;;;23.38;3.42;;;;;;;15.12;100.00;96292.56;4936173;28;20043;-59
2022/09/27 10:49:51;;;;;;;21.60;3.38;;;;;;;15.22;100.00;96290.81;4937665;28;20024;-58
2022/09/27 10:52:22;;;;;;;23.10;3.08;;;;;;;14.94;100.00;96302.84;4938035;28;20521;-58
2022/09/27 10:55:06;;;;;;;24.53;3.33;;;;;;;14.69;100.00;96297.06;4937007;29;20041;-58
2022/09/27 10:57:32;;;;;;;20.05;3.08;;;;;;;14.91;100.00;96313.63;4935567;29;20375;-58
2022/09/27 11:00:18;;;;;;;22.77;3.33;;;;;;;14.32;100.00;96315.03;4937589;28;20325;-57
2022/09/27 11:02:55;;;;;;;19.88;3.08;;;;;;;14.73;100.00;96345.72;4937918;29;20105;-58
2022/09/27 11:05:26;;;;;;;21.73;3.25;;;;;;;13.50;100.00;96342.59;4938089;28;20059;-57
2022/09/27 11:07:57;;;;;;;20.30;3.03;;;;;;;13.62;100.00;96341.63;4937859;29;20023;-58
2022/09/27 11:10:30;;;;;;;21.92;3.08;;;;;;;12.56;100.00;96346.34;4938208;28;20031;-58
2022/09/27 11:13:17;;;;;;;20.02;2.97;;;;;;;13.27;100.00;96347.84;4937602;29;20042;-58
2022/09/27 11:16:03;;;;;;;20.70;3.00;;;;;;;13.23;100.00;96341.19;4936009;28;20051;-58
2022/09/27 11:18:41;;;;;;;21.98;3.20;;;;;;;13.91;100.00;96351.53;4937256;29;20106;-58
2022/09/27 11:21:44;;;;;;;24.02;3.47;;;;;;;13.94;100.00;96342.63;4935369;28;20074;-57
2022/09/27 11:24:25;;;;;;;27.83;3.65;;;;;;;12.52;100.00;96345.75;4936844;29;20031;-57
2022/09/27 11:27:31;;;;;;;22.35;3.22;;;;;;;12.68;100.00;96350.63;4937085;28;20123;-58
2022/09/27 11:30:16;;;;;;;27.35;3.65;;;;;;;13.23;100.00;96351.66;4936782;29;20023;-58
2022/09/27 11:32:53;;;;;;;22.58;3.35;;;;;;;14.05;100.00;96353.88;4937145;29;20142;-58
2022/09/27 11:35:46;;;;;;;27.17;3.70;;;;;;;13.75;100.00;96341.47;4936590;28;20031;-57
2022/09/27 11:38:17;;;;;;;20.73;3.08;;;;;;;13.90;100.00;96336.78;4936145;29;20035;-58
2022/09/27 11:40:46;;;;;;;22.23;3.28;;;;;;;13.42;100.00;96342.38;4936119;28;20134;-57
2022/09/27 11:43:36;;;;;;;21.77;3.10;;;;;;;14.36;100.00;96340.88;4938809;29;20043;-58